sensor_id;sensor_type;location;lat;lon;timestamp;P1;durP1;ratioP1;P2;durP2;ratioP2
11541;SDS011;5827;49.482;7.716;2022-12-07T00:00:11;12.43;;;8.47;;
11541;SDS011;5827;49.482;7.716;2022-12-07T00:02:15;11.83;;;7.50;;
11541;SDS011;5827;49.482;7.716;2022-12-07T00:04:17;10.93;;;7.67;;
11541;SDS011;5827;49.482;7.716;2022-12-07T00:06:20;9.63;;;7.57;;
11541;SDS011;5827;49.482;7.716;2022-12-07T00:08:21;10.43;;;8.13;;
11541;SDS011;5827;49.482;7.716;2022-12-07T00:10:23;12.17;;;8.37;;
11541;SDS011;5827;49.482;7.716;2022-12-07T00:12:24;10.60;;;7.83;;
11541;SDS011;5827;49.482;7.716;2022-12-07T00:14:26;14.20;;;9.13;;
11541;SDS011;5827;49.482;7.716;2022-12-07T00:16:29;16.30;;;9.47;;
11541;SDS011;5827;49.482;7.716;2022-12-07T00:18:33;13.70;;;8.87;;
11541;SDS011;5827;49.482;7.716;2022-12-07T00:20:34;15.83;;;8.60;;
11541;SDS011;5827;49.482;7.716;2022-12-07T00:22:36;12.77;;;8.77;;
11541;SDS011;5827;49.482;7.716;2022-12-07T00:24:37;13.40;;;9.07;;
11541;SDS011;5827;49.482;7.716;2022-12-07T00:26:39;12.93;;;8.97;;
11541;SDS011;5827;49.482;7.716;2022-12-07T00:28:44;13.10;;;8.70;;
11541;SDS011;5827;49.482;7.716;2022-12-07T00:30:46;13.00;;;9.47;;
11541;SDS011;5827;49.482;7.716;2022-12-07T00:32:48;12.77;;;9.13;;
11541;SDS011;5827;49.482;7.716;2022-12-07T00:34:51;14.17;;;9.23;;
11541;SDS011;5827;49.482;7.716;2022-12-07T00:36:52;15.23;;;9.80;;
11541;SDS011;5827;49.482;7.716;2022-12-07T00:38:54;15.13;;;9.97;;
11541;SDS011;5827;49.482;7.716;2022-12-07T00:40:56;14.57;;;8.73;;
11541;SDS011;5827;49.482;7.716;2022-12-07T00:42:58;14.57;;;9.80;;
11541;SDS011;5827;49.482;7.716;2022-12-07T00:45:00;15.07;;;9.60;;
11541;SDS011;5827;49.482;7.716;2022-12-07T00:47:01;15.80;;;10.07;;
11541;SDS011;5827;49.482;7.716;2022-12-07T00:49:03;14.60;;;9.00;;
11541;SDS011;5827;49.482;7.716;2022-12-07T00:51:06;15.27;;;10.10;;
11541;SDS011;5827;49.482;7.716;2022-12-07T00:53:08;16.23;;;9.83;;
11541;SDS011;5827;49.482;7.716;2022-12-07T00:55:10;12.00;;;8.73;;
11541;SDS011;5827;49.482;7.716;2022-12-07T00:57:11;15.63;;;9.50;;
11541;SDS011;5827;49.482;7.716;2022-12-07T00:59:13;15.90;;;9.47;;
11541;SDS011;5827;49.482;7.716;2022-12-07T01:01:15;13.77;;;8.63;;
11541;SDS011;5827;49.482;7.716;2022-12-07T01:03:16;11.80;;;8.33;;
11541;SDS011;5827;49.482;7.716;2022-12-07T01:05:18;13.03;;;8.83;;
11541;SDS011;5827;49.482;7.716;2022-12-07T01:07:21;12.97;;;8.37;;
11541;SDS011;5827;49.482;7.716;2022-12-07T01:09:23;13.60;;;8.17;;
11541;SDS011;5827;49.482;7.716;2022-12-07T01:11:25;12.27;;;8.70;;
11541;SDS011;5827;49.482;7.716;2022-12-07T01:13:28;11.33;;;8.13;;
11541;SDS011;5827;49.482;7.716;2022-12-07T01:15:30;12.87;;;8.40;;
11541;SDS011;5827;49.482;7.716;2022-12-07T01:17:32;10.43;;;7.90;;
11541;SDS011;5827;49.482;7.716;2022-12-07T01:19:34;14.03;;;7.97;;
11541;SDS011;5827;49.482;7.716;2022-12-07T01:21:35;11.27;;;8.13;;
11541;SDS011;5827;49.482;7.716;2022-12-07T01:23:38;11.87;;;7.97;;
11541;SDS011;5827;49.482;7.716;2022-12-07T01:25:41;11.27;;;7.60;;
11541;SDS011;5827;49.482;7.716;2022-12-07T01:27:42;10.87;;;7.77;;
11541;SDS011;5827;49.482;7.716;2022-12-07T01:29:44;11.97;;;8.07;;
11541;SDS011;5827;49.482;7.716;2022-12-07T01:31:47;10.67;;;7.93;;
11541;SDS011;5827;49.482;7.716;2022-12-07T01:33:51;19.17;;;8.47;;
11541;SDS011;5827;49.482;7.716;2022-12-07T01:35:54;11.00;;;8.33;;
11541;SDS011;5827;49.482;7.716;2022-12-07T01:37:55;13.47;;;9.03;;
11541;SDS011;5827;49.482;7.716;2022-12-07T01:39:58;11.70;;;8.13;;
11541;SDS011;5827;49.482;7.716;2022-12-07T01:41:59;11.87;;;8.20;;
11541;SDS011;5827;49.482;7.716;2022-12-07T01:44:09;13.37;;;8.53;;
11541;SDS011;5827;49.482;7.716;2022-12-07T01:46:12;11.27;;;8.10;;
11541;SDS011;5827;49.482;7.716;2022-12-07T01:48:14;10.73;;;8.00;;
11541;SDS011;5827;49.482;7.716;2022-12-07T01:50:19;12.27;;;8.23;;
11541;SDS011;5827;49.482;7.716;2022-12-07T01:52:22;10.77;;;7.73;;
11541;SDS011;5827;49.482;7.716;2022-12-07T01:54:26;10.93;;;7.93;;
11541;SDS011;5827;49.482;7.716;2022-12-07T01:56:29;10.83;;;8.00;;
11541;SDS011;5827;49.482;7.716;2022-12-07T01:58:33;10.67;;;8.30;;
11541;SDS011;5827;49.482;7.716;2022-12-07T02:00:34;9.50;;;8.07;;
11541;SDS011;5827;49.482;7.716;2022-12-07T02:02:36;12.83;;;8.80;;
11541;SDS011;5827;49.482;7.716;2022-12-07T02:04:42;12.77;;;8.00;;
11541;SDS011;5827;49.482;7.716;2022-12-07T02:06:45;11.43;;;9.00;;
11541;SDS011;5827;49.482;7.716;2022-12-07T02:08:47;11.93;;;9.07;;
11541;SDS011;5827;49.482;7.716;2022-12-07T02:10:50;12.97;;;8.63;;
11541;SDS011;5827;49.482;7.716;2022-12-07T02:12:54;12.43;;;9.07;;
11541;SDS011;5827;49.482;7.716;2022-12-07T02:14:58;13.47;;;8.70;;
11541;SDS011;5827;49.482;7.716;2022-12-07T02:17:03;13.90;;;8.77;;
11541;SDS011;5827;49.482;7.716;2022-12-07T02:22:06;14.20;;;8.07;;
11541;SDS011;5827;49.482;7.716;2022-12-07T02:24:37;12.87;;;9.00;;
11541;SDS011;5827;49.482;7.716;2022-12-07T02:26:54;12.50;;;8.47;;
11541;SDS011;5827;49.482;7.716;2022-12-07T02:29:10;11.83;;;8.27;;
11541;SDS011;5827;49.482;7.716;2022-12-07T02:31:18;12.43;;;8.60;;
11541;SDS011;5827;49.482;7.716;2022-12-07T02:33:24;13.53;;;8.90;;
11541;SDS011;5827;49.482;7.716;2022-12-07T02:35:30;13.37;;;9.00;;
11541;SDS011;5827;49.482;7.716;2022-12-07T02:37:38;13.10;;;9.27;;
11541;SDS011;5827;49.482;7.716;2022-12-07T02:39:46;14.00;;;9.43;;
11541;SDS011;5827;49.482;7.716;2022-12-07T02:41:52;12.83;;;9.07;;
11541;SDS011;5827;49.482;7.716;2022-12-07T02:44:00;14.50;;;9.90;;
11541;SDS011;5827;49.482;7.716;2022-12-07T02:46:08;11.70;;;8.53;;
11541;SDS011;5827;49.482;7.716;2022-12-07T02:48:14;12.13;;;8.17;;
11541;SDS011;5827;49.482;7.716;2022-12-07T02:50:18;11.63;;;8.57;;
11541;SDS011;5827;49.482;7.716;2022-12-07T02:52:20;12.20;;;8.63;;
11541;SDS011;5827;49.482;7.716;2022-12-07T02:54:22;11.83;;;8.53;;
11541;SDS011;5827;49.482;7.716;2022-12-07T02:56:25;11.50;;;8.87;;
11541;SDS011;5827;49.482;7.716;2022-12-07T02:58:33;11.90;;;9.17;;
11541;SDS011;5827;49.482;7.716;2022-12-07T03:00:50;12.57;;;9.20;;
11541;SDS011;5827;49.482;7.716;2022-12-07T03:02:59;11.83;;;8.80;;
11541;SDS011;5827;49.482;7.716;2022-12-07T03:05:11;14.13;;;9.70;;
11541;SDS011;5827;49.482;7.716;2022-12-07T03:07:24;13.70;;;9.67;;
11541;SDS011;5827;49.482;7.716;2022-12-07T03:09:32;12.70;;;9.03;;
11541;SDS011;5827;49.482;7.716;2022-12-07T03:11:40;14.00;;;9.47;;
11541;SDS011;5827;49.482;7.716;2022-12-07T03:13:46;11.53;;;8.67;;
11541;SDS011;5827;49.482;7.716;2022-12-07T03:15:53;15.23;;;9.50;;
11541;SDS011;5827;49.482;7.716;2022-12-07T03:18:01;13.83;;;9.77;;
11541;SDS011;5827;49.482;7.716;2022-12-07T03:20:05;14.17;;;9.43;;
11541;SDS011;5827;49.482;7.716;2022-12-07T03:22:10;14.17;;;9.17;;
11541;SDS011;5827;49.482;7.716;2022-12-07T03:24:14;12.57;;;8.20;;
11541;SDS011;5827;49.482;7.716;2022-12-07T03:26:19;12.33;;;9.17;;
11541;SDS011;5827;49.482;7.716;2022-12-07T03:28:26;12.43;;;7.63;;
11541;SDS011;5827;49.482;7.716;2022-12-07T03:30:32;12.10;;;8.20;;
11541;SDS011;5827;49.482;7.716;2022-12-07T03:32:41;11.60;;;8.57;;
11541;SDS011;5827;49.482;7.716;2022-12-07T03:34:48;11.33;;;7.63;;
11541;SDS011;5827;49.482;7.716;2022-12-07T03:36:54;10.93;;;7.97;;
11541;SDS011;5827;49.482;7.716;2022-12-07T03:39:02;11.63;;;8.80;;
11541;SDS011;5827;49.482;7.716;2022-12-07T03:41:11;11.57;;;8.30;;
11541;SDS011;5827;49.482;7.716;2022-12-07T03:43:17;11.90;;;7.80;;
11541;SDS011;5827;49.482;7.716;2022-12-07T03:45:20;10.57;;;8.17;;
11541;SDS011;5827;49.482;7.716;2022-12-07T03:47:31;16.30;;;9.73;;
11541;SDS011;5827;49.482;7.716;2022-12-07T03:49:40;22.63;;;13.20;;
11541;SDS011;5827;49.482;7.716;2022-12-07T03:51:47;13.97;;;9.77;;
11541;SDS011;5827;49.482;7.716;2022-12-07T03:53:54;14.77;;;9.10;;
11541;SDS011;5827;49.482;7.716;2022-12-07T03:56:00;14.33;;;9.20;;
11541;SDS011;5827;49.482;7.716;2022-12-07T03:58:03;15.30;;;9.20;;
11541;SDS011;5827;49.482;7.716;2022-12-07T04:00:09;13.53;;;9.33;;
11541;SDS011;5827;49.482;7.716;2022-12-07T04:02:12;15.83;;;10.27;;
11541;SDS011;5827;49.482;7.716;2022-12-07T04:04:15;15.77;;;9.53;;
11541;SDS011;5827;49.482;7.716;2022-12-07T04:06:16;16.07;;;9.53;;
11541;SDS011;5827;49.482;7.716;2022-12-07T04:08:19;13.30;;;9.83;;
11541;SDS011;5827;49.482;7.716;2022-12-07T04:10:21;15.33;;;9.13;;
11541;SDS011;5827;49.482;7.716;2022-12-07T04:12:23;15.67;;;10.13;;
11541;SDS011;5827;49.482;7.716;2022-12-07T04:14:24;15.43;;;10.33;;
11541;SDS011;5827;49.482;7.716;2022-12-07T04:16:26;13.43;;;9.53;;
11541;SDS011;5827;49.482;7.716;2022-12-07T04:18:27;13.50;;;9.33;;
11541;SDS011;5827;49.482;7.716;2022-12-07T04:20:29;16.00;;;9.53;;
11541;SDS011;5827;49.482;7.716;2022-12-07T04:22:30;13.67;;;9.60;;
11541;SDS011;5827;49.482;7.716;2022-12-07T04:24:33;14.30;;;9.80;;
11541;SDS011;5827;49.482;7.716;2022-12-07T04:26:35;13.63;;;10.00;;
11541;SDS011;5827;49.482;7.716;2022-12-07T04:28:37;16.03;;;10.30;;
11541;SDS011;5827;49.482;7.716;2022-12-07T04:30:38;15.87;;;10.53;;
11541;SDS011;5827;49.482;7.716;2022-12-07T04:32:40;13.10;;;8.90;;
11541;SDS011;5827;49.482;7.716;2022-12-07T04:34:41;13.13;;;8.80;;
11541;SDS011;5827;49.482;7.716;2022-12-07T04:36:43;12.50;;;8.67;;
11541;SDS011;5827;49.482;7.716;2022-12-07T04:38:45;13.30;;;8.97;;
11541;SDS011;5827;49.482;7.716;2022-12-07T04:40:48;14.33;;;9.50;;
11541;SDS011;5827;49.482;7.716;2022-12-07T04:42:49;15.47;;;9.57;;
11541;SDS011;5827;49.482;7.716;2022-12-07T04:44:51;12.63;;;9.00;;
11541;SDS011;5827;49.482;7.716;2022-12-07T04:46:52;14.43;;;9.73;;
11541;SDS011;5827;49.482;7.716;2022-12-07T04:48:55;12.23;;;8.83;;
11541;SDS011;5827;49.482;7.716;2022-12-07T04:50:57;13.63;;;9.03;;
11541;SDS011;5827;49.482;7.716;2022-12-07T04:52:58;13.73;;;9.60;;
11541;SDS011;5827;49.482;7.716;2022-12-07T04:55:00;13.30;;;9.07;;
11541;SDS011;5827;49.482;7.716;2022-12-07T04:57:05;11.60;;;8.50;;
11541;SDS011;5827;49.482;7.716;2022-12-07T04:59:09;12.80;;;9.40;;
11541;SDS011;5827;49.482;7.716;2022-12-07T05:01:15;12.13;;;8.93;;
11541;SDS011;5827;49.482;7.716;2022-12-07T05:03:19;13.20;;;8.87;;
11541;SDS011;5827;49.482;7.716;2022-12-07T05:05:21;11.33;;;8.57;;
11541;SDS011;5827;49.482;7.716;2022-12-07T05:07:24;12.03;;;9.27;;
11541;SDS011;5827;49.482;7.716;2022-12-07T05:09:25;12.50;;;9.37;;
11541;SDS011;5827;49.482;7.716;2022-12-07T05:11:27;11.80;;;9.17;;
11541;SDS011;5827;49.482;7.716;2022-12-07T05:13:42;14.10;;;9.20;;
11541;SDS011;5827;49.482;7.716;2022-12-07T05:15:43;11.93;;;8.93;;
11541;SDS011;5827;49.482;7.716;2022-12-07T05:17:45;15.73;;;11.00;;
11541;SDS011;5827;49.482;7.716;2022-12-07T05:19:46;15.47;;;11.00;;
11541;SDS011;5827;49.482;7.716;2022-12-07T05:21:48;15.07;;;10.83;;
11541;SDS011;5827;49.482;7.716;2022-12-07T05:23:50;16.33;;;10.53;;
11541;SDS011;5827;49.482;7.716;2022-12-07T05:25:51;15.37;;;10.37;;
11541;SDS011;5827;49.482;7.716;2022-12-07T05:27:54;13.30;;;9.93;;
11541;SDS011;5827;49.482;7.716;2022-12-07T05:29:57;14.10;;;9.63;;
11541;SDS011;5827;49.482;7.716;2022-12-07T05:31:58;14.03;;;9.50;;
11541;SDS011;5827;49.482;7.716;2022-12-07T05:34:00;13.13;;;9.70;;
11541;SDS011;5827;49.482;7.716;2022-12-07T05:36:02;14.83;;;10.10;;
11541;SDS011;5827;49.482;7.716;2022-12-07T05:38:05;14.37;;;10.23;;
11541;SDS011;5827;49.482;7.716;2022-12-07T05:40:07;13.63;;;9.83;;
11541;SDS011;5827;49.482;7.716;2022-12-07T05:42:10;14.50;;;10.20;;
11541;SDS011;5827;49.482;7.716;2022-12-07T05:44:13;15.17;;;11.03;;
11541;SDS011;5827;49.482;7.716;2022-12-07T05:46:16;17.20;;;10.90;;
11541;SDS011;5827;49.482;7.716;2022-12-07T05:48:18;17.50;;;10.87;;
11541;SDS011;5827;49.482;7.716;2022-12-07T05:50:20;16.43;;;10.83;;
11541;SDS011;5827;49.482;7.716;2022-12-07T05:52:21;18.30;;;11.17;;
11541;SDS011;5827;49.482;7.716;2022-12-07T05:54:23;16.17;;;10.90;;
11541;SDS011;5827;49.482;7.716;2022-12-07T05:56:25;16.40;;;11.17;;
11541;SDS011;5827;49.482;7.716;2022-12-07T05:58:27;16.30;;;10.50;;
11541;SDS011;5827;49.482;7.716;2022-12-07T06:00:46;17.47;;;11.27;;
11541;SDS011;5827;49.482;7.716;2022-12-07T06:02:49;16.53;;;11.23;;
11541;SDS011;5827;49.482;7.716;2022-12-07T06:04:51;18.17;;;11.40;;
11541;SDS011;5827;49.482;7.716;2022-12-07T06:06:52;15.97;;;11.33;;
11541;SDS011;5827;49.482;7.716;2022-12-07T06:08:54;20.33;;;12.30;;
11541;SDS011;5827;49.482;7.716;2022-12-07T06:10:56;17.67;;;11.53;;
11541;SDS011;5827;49.482;7.716;2022-12-07T06:13:11;16.87;;;11.60;;
11541;SDS011;5827;49.482;7.716;2022-12-07T06:15:13;20.83;;;13.37;;
11541;SDS011;5827;49.482;7.716;2022-12-07T06:17:15;19.13;;;14.37;;
11541;SDS011;5827;49.482;7.716;2022-12-07T06:19:18;19.83;;;14.97;;
11541;SDS011;5827;49.482;7.716;2022-12-07T06:21:19;20.60;;;13.57;;
11541;SDS011;5827;49.482;7.716;2022-12-07T06:23:21;17.97;;;12.40;;
11541;SDS011;5827;49.482;7.716;2022-12-07T06:25:22;18.17;;;12.20;;
11541;SDS011;5827;49.482;7.716;2022-12-07T06:27:24;20.23;;;12.77;;
11541;SDS011;5827;49.482;7.716;2022-12-07T06:29:25;19.87;;;13.33;;
11541;SDS011;5827;49.482;7.716;2022-12-07T06:31:27;19.90;;;13.20;;
11541;SDS011;5827;49.482;7.716;2022-12-07T06:33:29;19.43;;;12.40;;
11541;SDS011;5827;49.482;7.716;2022-12-07T06:35:33;18.47;;;12.67;;
11541;SDS011;5827;49.482;7.716;2022-12-07T06:37:35;19.87;;;12.53;;
11541;SDS011;5827;49.482;7.716;2022-12-07T06:39:36;27.37;;;18.63;;
11541;SDS011;5827;49.482;7.716;2022-12-07T06:41:38;25.03;;;16.30;;
11541;SDS011;5827;49.482;7.716;2022-12-07T06:43:40;35.23;;;21.87;;
11541;SDS011;5827;49.482;7.716;2022-12-07T06:45:42;30.03;;;20.47;;
11541;SDS011;5827;49.482;7.716;2022-12-07T06:47:44;25.67;;;17.23;;
11541;SDS011;5827;49.482;7.716;2022-12-07T06:49:45;23.77;;;16.33;;
11541;SDS011;5827;49.482;7.716;2022-12-07T06:51:48;25.37;;;15.93;;
11541;SDS011;5827;49.482;7.716;2022-12-07T06:53:50;20.77;;;13.47;;
11541;SDS011;5827;49.482;7.716;2022-12-07T06:55:51;25.70;;;16.40;;
11541;SDS011;5827;49.482;7.716;2022-12-07T06:57:53;24.03;;;15.70;;
11541;SDS011;5827;49.482;7.716;2022-12-07T06:59:54;23.47;;;15.33;;
11541;SDS011;5827;49.482;7.716;2022-12-07T07:01:56;22.53;;;14.67;;
11541;SDS011;5827;49.482;7.716;2022-12-07T07:03:57;24.53;;;15.03;;
11541;SDS011;5827;49.482;7.716;2022-12-07T07:05:59;22.43;;;15.53;;
11541;SDS011;5827;49.482;7.716;2022-12-07T07:08:02;24.83;;;17.07;;
11541;SDS011;5827;49.482;7.716;2022-12-07T07:10:04;28.47;;;18.97;;
11541;SDS011;5827;49.482;7.716;2022-12-07T07:12:06;24.97;;;15.47;;
11541;SDS011;5827;49.482;7.716;2022-12-07T07:14:08;23.80;;;15.47;;
11541;SDS011;5827;49.482;7.716;2022-12-07T07:16:09;19.27;;;15.20;;
11541;SDS011;5827;49.482;7.716;2022-12-07T07:18:11;19.63;;;13.73;;
11541;SDS011;5827;49.482;7.716;2022-12-07T07:20:13;19.80;;;13.90;;
11541;SDS011;5827;49.482;7.716;2022-12-07T07:22:14;20.60;;;13.53;;
11541;SDS011;5827;49.482;7.716;2022-12-07T07:24:17;20.43;;;12.73;;
11541;SDS011;5827;49.482;7.716;2022-12-07T07:26:19;20.63;;;12.90;;
11541;SDS011;5827;49.482;7.716;2022-12-07T07:28:20;19.03;;;12.50;;
11541;SDS011;5827;49.482;7.716;2022-12-07T07:30:23;18.80;;;13.30;;
11541;SDS011;5827;49.482;7.716;2022-12-07T07:32:25;20.97;;;13.50;;
11541;SDS011;5827;49.482;7.716;2022-12-07T07:34:26;20.13;;;14.13;;
11541;SDS011;5827;49.482;7.716;2022-12-07T07:36:28;24.67;;;14.70;;
11541;SDS011;5827;49.482;7.716;2022-12-07T07:38:29;29.53;;;18.47;;
11541;SDS011;5827;49.482;7.716;2022-12-07T07:40:32;30.77;;;17.10;;
11541;SDS011;5827;49.482;7.716;2022-12-07T07:42:34;24.80;;;15.23;;
11541;SDS011;5827;49.482;7.716;2022-12-07T07:44:36;22.40;;;16.00;;
11541;SDS011;5827;49.482;7.716;2022-12-07T07:46:37;24.67;;;15.07;;
11541;SDS011;5827;49.482;7.716;2022-12-07T07:48:39;22.13;;;14.27;;
11541;SDS011;5827;49.482;7.716;2022-12-07T07:50:40;23.07;;;14.87;;
11541;SDS011;5827;49.482;7.716;2022-12-07T07:52:42;22.77;;;13.93;;
11541;SDS011;5827;49.482;7.716;2022-12-07T07:54:44;21.73;;;13.30;;
11541;SDS011;5827;49.482;7.716;2022-12-07T07:56:47;19.73;;;13.70;;
11541;SDS011;5827;49.482;7.716;2022-12-07T07:58:51;20.27;;;13.97;;
11541;SDS011;5827;49.482;7.716;2022-12-07T08:00:52;24.53;;;14.37;;
11541;SDS011;5827;49.482;7.716;2022-12-07T08:02:54;21.63;;;14.27;;
11541;SDS011;5827;49.482;7.716;2022-12-07T08:04:56;20.30;;;13.23;;
11541;SDS011;5827;49.482;7.716;2022-12-07T08:06:57;22.70;;;13.77;;
11541;SDS011;5827;49.482;7.716;2022-12-07T08:08:58;18.53;;;12.93;;
11541;SDS011;5827;49.482;7.716;2022-12-07T08:11:00;22.00;;;13.97;;
11541;SDS011;5827;49.482;7.716;2022-12-07T08:13:03;23.27;;;14.17;;
11541;SDS011;5827;49.482;7.716;2022-12-07T08:15:14;23.43;;;14.57;;
11541;SDS011;5827;49.482;7.716;2022-12-07T08:17:16;20.00;;;13.10;;
11541;SDS011;5827;49.482;7.716;2022-12-07T08:19:17;21.43;;;13.27;;
11541;SDS011;5827;49.482;7.716;2022-12-07T08:21:19;23.70;;;14.90;;
11541;SDS011;5827;49.482;7.716;2022-12-07T08:23:20;21.27;;;13.87;;
11541;SDS011;5827;49.482;7.716;2022-12-07T08:25:22;24.57;;;14.73;;
11541;SDS011;5827;49.482;7.716;2022-12-07T08:27:23;25.57;;;15.30;;
11541;SDS011;5827;49.482;7.716;2022-12-07T08:29:28;30.13;;;16.63;;
11541;SDS011;5827;49.482;7.716;2022-12-07T08:31:30;23.77;;;15.70;;
11541;SDS011;5827;49.482;7.716;2022-12-07T08:33:31;30.90;;;18.73;;
11541;SDS011;5827;49.482;7.716;2022-12-07T08:35:33;26.13;;;15.23;;
11541;SDS011;5827;49.482;7.716;2022-12-07T08:37:35;23.70;;;14.93;;
11541;SDS011;5827;49.482;7.716;2022-12-07T08:39:36;22.33;;;14.93;;
11541;SDS011;5827;49.482;7.716;2022-12-07T08:41:38;23.77;;;14.23;;
11541;SDS011;5827;49.482;7.716;2022-12-07T08:43:40;22.20;;;13.80;;
11541;SDS011;5827;49.482;7.716;2022-12-07T08:45:43;22.90;;;14.87;;
11541;SDS011;5827;49.482;7.716;2022-12-07T08:47:45;23.97;;;14.80;;
11541;SDS011;5827;49.482;7.716;2022-12-07T08:49:51;23.17;;;14.07;;
11541;SDS011;5827;49.482;7.716;2022-12-07T08:51:55;28.53;;;15.47;;
11541;SDS011;5827;49.482;7.716;2022-12-07T08:53:56;21.27;;;14.03;;
11541;SDS011;5827;49.482;7.716;2022-12-07T08:56:01;22.50;;;14.07;;
11541;SDS011;5827;49.482;7.716;2022-12-07T08:58:03;20.70;;;13.97;;
11541;SDS011;5827;49.482;7.716;2022-12-07T09:00:05;21.43;;;14.00;;
11541;SDS011;5827;49.482;7.716;2022-12-07T09:02:09;21.07;;;13.57;;
11541;SDS011;5827;49.482;7.716;2022-12-07T09:04:10;20.53;;;13.87;;
11541;SDS011;5827;49.482;7.716;2022-12-07T09:06:12;22.30;;;13.97;;
11541;SDS011;5827;49.482;7.716;2022-12-07T09:08:13;23.00;;;14.80;;
11541;SDS011;5827;49.482;7.716;2022-12-07T09:10:17;21.07;;;14.57;;
11541;SDS011;5827;49.482;7.716;2022-12-07T09:12:18;21.90;;;13.90;;
11541;SDS011;5827;49.482;7.716;2022-12-07T09:14:20;21.33;;;13.60;;
11541;SDS011;5827;49.482;7.716;2022-12-07T09:16:21;22.50;;;14.63;;
11541;SDS011;5827;49.482;7.716;2022-12-07T09:18:24;20.33;;;12.93;;
11541;SDS011;5827;49.482;7.716;2022-12-07T09:20:26;22.43;;;14.13;;
11541;SDS011;5827;49.482;7.716;2022-12-07T09:22:28;21.47;;;13.80;;
11541;SDS011;5827;49.482;7.716;2022-12-07T09:24:30;21.47;;;13.30;;
11541;SDS011;5827;49.482;7.716;2022-12-07T09:26:31;20.37;;;14.23;;
11541;SDS011;5827;49.482;7.716;2022-12-07T09:28:33;20.30;;;12.53;;
11541;SDS011;5827;49.482;7.716;2022-12-07T09:30:34;22.57;;;14.30;;
11541;SDS011;5827;49.482;7.716;2022-12-07T09:32:36;22.47;;;14.07;;
11541;SDS011;5827;49.482;7.716;2022-12-07T09:34:39;22.57;;;14.20;;
11541;SDS011;5827;49.482;7.716;2022-12-07T09:36:41;21.37;;;14.10;;
11541;SDS011;5827;49.482;7.716;2022-12-07T09:38:42;20.47;;;13.07;;
11541;SDS011;5827;49.482;7.716;2022-12-07T09:40:44;24.43;;;13.57;;
11541;SDS011;5827;49.482;7.716;2022-12-07T09:42:47;19.40;;;13.43;;
11541;SDS011;5827;49.482;7.716;2022-12-07T09:44:51;21.40;;;14.27;;
11541;SDS011;5827;49.482;7.716;2022-12-07T09:46:52;19.57;;;13.00;;
11541;SDS011;5827;49.482;7.716;2022-12-07T09:48:54;20.00;;;12.97;;
11541;SDS011;5827;49.482;7.716;2022-12-07T09:50:57;18.20;;;12.03;;
11541;SDS011;5827;49.482;7.716;2022-12-07T09:53:04;21.33;;;12.97;;
11541;SDS011;5827;49.482;7.716;2022-12-07T09:55:09;21.80;;;12.83;;
11541;SDS011;5827;49.482;7.716;2022-12-07T09:57:13;20.83;;;12.90;;
11541;SDS011;5827;49.482;7.716;2022-12-07T09:59:16;19.57;;;12.43;;
11541;SDS011;5827;49.482;7.716;2022-12-07T10:01:19;20.40;;;12.77;;
11541;SDS011;5827;49.482;7.716;2022-12-07T10:03:22;20.13;;;13.30;;
11541;SDS011;5827;49.482;7.716;2022-12-07T10:05:25;21.27;;;12.80;;
11541;SDS011;5827;49.482;7.716;2022-12-07T10:07:31;23.13;;;13.43;;
11541;SDS011;5827;49.482;7.716;2022-12-07T10:09:33;19.93;;;13.07;;
11541;SDS011;5827;49.482;7.716;2022-12-07T10:11:43;19.27;;;12.40;;
11541;SDS011;5827;49.482;7.716;2022-12-07T10:14:09;18.00;;;12.50;;
11541;SDS011;5827;49.482;7.716;2022-12-07T10:16:26;21.43;;;13.10;;
11541;SDS011;5827;49.482;7.716;2022-12-07T10:18:37;18.90;;;12.67;;
11541;SDS011;5827;49.482;7.716;2022-12-07T10:20:41;19.00;;;12.47;;
11541;SDS011;5827;49.482;7.716;2022-12-07T10:22:55;22.60;;;12.93;;
11541;SDS011;5827;49.482;7.716;2022-12-07T10:25:07;18.30;;;12.90;;
11541;SDS011;5827;49.482;7.716;2022-12-07T10:27:17;20.83;;;12.60;;
11541;SDS011;5827;49.482;7.716;2022-12-07T10:29:22;21.83;;;12.63;;
11541;SDS011;5827;49.482;7.716;2022-12-07T10:31:24;18.40;;;12.30;;
11541;SDS011;5827;49.482;7.716;2022-12-07T10:33:27;20.53;;;11.90;;
11541;SDS011;5827;49.482;7.716;2022-12-07T10:35:30;19.80;;;11.83;;
11541;SDS011;5827;49.482;7.716;2022-12-07T10:37:32;18.07;;;12.20;;
11541;SDS011;5827;49.482;7.716;2022-12-07T10:39:44;19.17;;;12.67;;
11541;SDS011;5827;49.482;7.716;2022-12-07T10:41:53;21.13;;;12.33;;
11541;SDS011;5827;49.482;7.716;2022-12-07T10:43:57;20.10;;;12.60;;
11541;SDS011;5827;49.482;7.716;2022-12-07T10:46:07;16.67;;;11.20;;
11541;SDS011;5827;49.482;7.716;2022-12-07T10:48:34;17.27;;;11.77;;
11541;SDS011;5827;49.482;7.716;2022-12-07T10:50:51;15.97;;;11.20;;
11541;SDS011;5827;49.482;7.716;2022-12-07T10:53:15;15.33;;;11.23;;
11541;SDS011;5827;49.482;7.716;2022-12-07T10:55:30;16.07;;;10.80;;
11541;SDS011;5827;49.482;7.716;2022-12-07T10:57:44;15.17;;;10.37;;
11541;SDS011;5827;49.482;7.716;2022-12-07T10:59:56;14.83;;;10.27;;
11541;SDS011;5827;49.482;7.716;2022-12-07T11:02:06;16.70;;;11.30;;
11541;SDS011;5827;49.482;7.716;2022-12-07T11:04:26;16.17;;;10.63;;
11541;SDS011;5827;49.482;7.716;2022-12-07T11:06:37;15.20;;;9.10;;
11541;SDS011;5827;49.482;7.716;2022-12-07T11:08:56;15.20;;;9.10;;
11541;SDS011;5827;49.482;7.716;2022-12-07T11:11:06;12.37;;;8.23;;
11541;SDS011;5827;49.482;7.716;2022-12-07T11:13:17;13.10;;;7.80;;
11541;SDS011;5827;49.482;7.716;2022-12-07T11:15:27;11.47;;;8.00;;
11541;SDS011;5827;49.482;7.716;2022-12-07T11:17:35;11.10;;;7.27;;
11541;SDS011;5827;49.482;7.716;2022-12-07T11:19:49;10.13;;;7.47;;
11541;SDS011;5827;49.482;7.716;2022-12-07T11:22:03;12.97;;;8.30;;
11541;SDS011;5827;49.482;7.716;2022-12-07T11:24:10;14.20;;;8.97;;
11541;SDS011;5827;49.482;7.716;2022-12-07T11:26:21;13.00;;;9.43;;
11541;SDS011;5827;49.482;7.716;2022-12-07T11:28:36;13.63;;;8.93;;
11541;SDS011;5827;49.482;7.716;2022-12-07T11:30:50;14.87;;;9.83;;
11541;SDS011;5827;49.482;7.716;2022-12-07T11:33:01;11.27;;;8.60;;
11541;SDS011;5827;49.482;7.716;2022-12-07T11:35:13;12.80;;;9.20;;
11541;SDS011;5827;49.482;7.716;2022-12-07T11:37:25;14.63;;;8.90;;
11541;SDS011;5827;49.482;7.716;2022-12-07T11:39:33;14.90;;;9.27;;
11541;SDS011;5827;49.482;7.716;2022-12-07T11:41:39;11.63;;;9.27;;
11541;SDS011;5827;49.482;7.716;2022-12-07T11:43:51;12.47;;;8.57;;
11541;SDS011;5827;49.482;7.716;2022-12-07T11:45:57;14.53;;;8.90;;
11541;SDS011;5827;49.482;7.716;2022-12-07T11:48:04;12.97;;;9.43;;
11541;SDS011;5827;49.482;7.716;2022-12-07T11:50:22;13.00;;;9.43;;
11541;SDS011;5827;49.482;7.716;2022-12-07T11:52:30;13.80;;;8.93;;
11541;SDS011;5827;49.482;7.716;2022-12-07T11:54:40;16.67;;;9.90;;
11541;SDS011;5827;49.482;7.716;2022-12-07T11:56:44;11.33;;;8.40;;
11541;SDS011;5827;49.482;7.716;2022-12-07T11:58:49;13.67;;;8.60;;
11541;SDS011;5827;49.482;7.716;2022-12-07T12:00:58;14.07;;;8.60;;
11541;SDS011;5827;49.482;7.716;2022-12-07T12:03:11;12.83;;;8.20;;
11541;SDS011;5827;49.482;7.716;2022-12-07T12:05:17;10.53;;;7.00;;
11541;SDS011;5827;49.482;7.716;2022-12-07T12:07:22;9.90;;;7.00;;
11541;SDS011;5827;49.482;7.716;2022-12-07T12:09:26;11.80;;;7.57;;
11541;SDS011;5827;49.482;7.716;2022-12-07T12:11:37;8.47;;;6.50;;
11541;SDS011;5827;49.482;7.716;2022-12-07T12:13:57;8.77;;;6.47;;
11541;SDS011;5827;49.482;7.716;2022-12-07T12:16:14;10.90;;;8.37;;
11541;SDS011;5827;49.482;7.716;2022-12-07T12:21:06;11.53;;;7.77;;
11541;SDS011;5827;49.482;7.716;2022-12-07T12:23:11;14.97;;;7.37;;
11541;SDS011;5827;49.482;7.716;2022-12-07T12:25:18;12.33;;;7.40;;
11541;SDS011;5827;49.482;7.716;2022-12-07T12:27:24;10.97;;;7.40;;
11541;SDS011;5827;49.482;7.716;2022-12-07T12:29:31;14.37;;;7.13;;